Date,TemperatureHighF,TemperatureAvgF,TemperatureLowF,DewpointHighF,DewpointAvgF,DewpointLowF,HumidityHigh,HumidityAvg,HumidityLow,PressureMaxIn,PressureMinIn,WindSpeedMaxMPH,WindSpeedAvgMPH,GustSpeedMaxMPH,PrecipitationSumIn
2013-1-1,29.8,7.3,-9.2,11.0,-0.4,-14.5,80,71,40,30.11,29.91,8,2,12,0.00
2013-1-2,26.8,14.9,6.4,19.5,9.1,1.6,87,78,58,29.92,29.81,12,3,13,0.00
2013-1-3,25.0,13.0,7.0,19.5,7.5,1.8,87,78,61,30.10,29.92,16,5,20,0.00
2013-1-4,41.4,20.3,10.9,22.6,13.1,7.1,85,74,45,30.00,29.89,9,2,15,0.00
2013-1-5,42.4,19.6,10.8,27.1,13.6,6.6,85,78,55,29.97,29.72,14,4,20,0.00
2013-1-6,15.4,13.4,11.8,11.1,9.3,7.3,86,83,80,29.99,29.84,13,7,18,0.00
2013-1-7,44.8,29.8,20.3,28.3,22.6,16.3,86,75,52,29.85,29.79,14,2,22,0.00
2013-1-8,37.9,26.3,14.2,30.1,21.5,10.5,87,82,69,29.86,29.66,16,5,22,0.00
2013-1-9,47.1,30.5,23.0,27.9,23.5,18.6,86,76,46,30.23,29.81,17,5,25,0.00
2013-1-10,39.6,33.6,25.7,32.6,25.6,21.0,92,74,50,30.22,29.62,71,10,71,0.12
2013-1-11,42.6,37.6,34.3,40.8,35.8,32.3,94,93,92,29.63,29.30,20,8,36,0.00
2013-1-12,42.6,20.4,7.3,41.0,14.1,0.1,94,76,60,29.92,29.31,15,8,22,0.00
2013-1-13,16.7,7.5,2.8,5.0,0.6,-2.7,78,73,59,30.09,29.85,15,6,20,0.00
2013-1-14,26.8,10.9,3.4,15.7,4.9,-1.9,82,77,57,30.24,30.09,12,2,15,0.00
2013-1-15,43.5,22.5,9.3,24.6,14.1,4.9,83,71,45,30.16,29.77,15,5,24,0.00
2013-1-16,40.1,27.1,16.9,32.8,21.1,8.8,88,78,69,30.04,29.57,18,6,26,0.00
2013-1-17,23.0,16.0,7.0,13.3,7.6,0.1,78,69,53,30.25,30.04,16,4,19,0.00
2013-1-18,49.5,32.4,17.4,33.5,25.2,11.7,85,75,54,30.16,29.62,19,6,23,0.00
2013-1-19,45.3,28.1,3.4,35.4,20.7,-4.2,87,74,58,30.02,29.57,34,10,47,0.00
2013-1-20,11.5,5.4,0.7,0.1,-3.3,-7.1,73,67,54,30.21,30.01,16,8,22,0.00
2013-1-21,0.7,-3.9,-9.2,-7.3,-12.7,-16.6,73,65,55,30.16,30.06,19,10,25,0.00
2013-1-22,16.2,0.9,-8.7,-1.1,-8.2,-14.7,75,65,46,30.23,30.08,11,3,14,0.00
2013-1-23,19.8,10.2,-3.3,11.9,1.3,-14.1,79,67,53,30.38,29.97,22,8,28,0.00
2013-1-24,13.8,4.7,-4.7,2.8,-6.7,-14.8,64,59,49,30.47,30.04,18,9,22,0.00
2013-1-25,23.9,14.1,4.5,14.6,5.7,-2.3,76,69,57,30.12,29.80,24,7,30,0.00
2013-1-26,30.4,15.3,0.3,13.7,4.6,-5.5,77,63,47,30.20,30.00,19,7,21,0.00
2013-1-27,31.8,29.7,25.2,29.2,22.9,12.8,91,77,56,30.01,29.66,100,14,100,0.04
2013-1-28,33.4,31.9,31.1,31.3,29.7,28.8,93,92,91,29.78,29.48,112,12,113,0.02
2013-1-29,35.8,33.2,28.4,34.0,30.4,23.6,94,89,82,29.54,29.38,21,6,25,0.10
2013-1-30,28.4,19.5,11.7,23.4,13.7,5.4,84,78,71,29.58,29.41,22,12,25,0.00
2013-1-31,11.7,2.9,-6.0,5.4,-4.3,-12.7,78,72,60,30.08,29.58,22,13,29,0.00
2013-2-1,15.8,1.3,-9.6,1.8,-6.9,-16.2,80,68,44,30.13,29.87,15,6,20,0.00
2013-2-2,15.3,9.6,5.5,7.9,3.5,1.0,82,76,65,30.00,29.79,10,3,14,0.00
2013-2-3,25.2,13.9,6.1,11.6,7.1,1.0,84,74,54,29.94,29.77,16,5,22,0.00
2013-2-4,29.8,12.8,6.1,12.5,4.9,-0.2,84,71,47,29.91,29.69,14,4,16,0.00
2013-2-5,31.6,22.2,10.0,25.6,17.1,5.6,88,81,73,29.94,29.55,16,5,20,0.00
2013-2-6,33.6,22.8,6.4,30.2,18.0,2.6,88,82,68,29.96,29.77,20,4,23,0.00
2013-2-7,33.6,26.8,24.4,30.2,23.9,20.0,91,89,83,30.06,29.80,16,5,36,0.00
2013-2-8,31.3,24.6,21.0,21.2,18.9,15.2,85,79,66,30.21,30.06,19,5,36,0.00
2013-2-9,31.1,27.5,23.7,26.1,23.6,19.6,89,85,81,30.11,29.79,23,13,71,0.00
2013-2-10,36.9,32.9,29.1,34.8,30.3,25.4,93,90,85,29.80,29.13,23,9,43,0.29
2013-2-11,33.3,25.2,19.2,30.9,20.7,13.9,92,83,76,29.89,29.16,23,12,32,0.04
2013-2-12,46.2,27.0,16.0,28.4,20.4,11.2,86,77,48,29.91,29.69,16,3,21,0.00
2013-2-13,38.5,30.0,18.7,32.2,24.8,15.5,87,81,71,29.69,29.44,8,2,14,0.00
2013-2-14,41.2,29.3,16.7,31.5,22.6,6.0,92,76,56,30.00,29.44,19,7,36,0.02
2013-2-15,21.9,12.1,5.7,7.6,3.6,-0.5,78,69,53,30.13,29.99,15,7,22,0.00
2013-2-16,21.9,11.1,1.8,10.5,3.6,-3.3,80,72,59,30.08,29.96,10,2,14,0.00
2013-2-17,32.9,22.9,8.4,22.3,14.8,3.1,80,71,57,29.97,29.54,25,13,30,0.00
2013-2-18,37.9,24.0,6.6,30.7,18.3,2.0,85,78,72,29.61,29.42,23,12,30,0.00
2013-2-19,9.1,3.7,-1.8,2.3,-3.1,-8.8,82,73,63,30.16,29.61,22,12,28,0.00
2013-2-20,25.2,6.7,-5.1,8.4,-1.5,-11.0,76,69,47,30.28,30.16,12,4,14,0.00
2013-2-21,23.4,15.1,4.5,14.5,7.6,-0.7,84,72,63,30.25,29.86,17,7,20,0.00
2013-2-22,39.9,24.0,18.5,26.8,18.7,14.4,88,80,58,29.86,29.69,17,6,19,0.02
2013-2-23,30.0,20.2,8.4,21.6,14.8,4.6,86,80,68,29.82,29.70,7,2,15,0.00
2013-2-24,43.0,21.6,1.8,25.8,13.4,-2.5,85,71,48,29.96,29.82,10,2,13,0.00
2013-2-25,38.8,31.3,25.3,30.2,24.9,20.7,87,77,66,29.96,29.87,8,2,9,0.02
2013-2-26,33.6,27.0,21.6,25.9,22.5,19.1,90,83,72,29.88,29.67,16,6,20,0.00
2013-2-27,36.3,31.1,28.6,27.4,24.8,22.3,84,77,68,29.82,29.66,18,11,21,0.00
2013-2-28,29.3,27.9,24.6,25.1,21.3,17.5,84,76,71,30.03,29.82,17,9,21,0.00
2013-3-1,28.9,23.6,17.4,17.9,15.1,10.5,78,70,62,30.15,30.03,16,8,21,0.00
2013-3-2,35.4,19.3,7.5,16.8,8.7,2.5,84,64,39,30.18,30.02,10,3,13,0.00
2013-3-3,36.3,24.6,13.1,15.9,11.2,5.5,75,58,39,30.03,29.85,16,6,20,0.00
2013-3-4,28.9,25.3,21.4,20.9,17.5,11.8,84,72,58,29.88,29.77,18,10,22,0.00
2013-3-5,29.5,26.0,22.8,23.8,21.6,19.1,87,83,77,30.09,29.80,15,7,36,0.00
2013-3-6,32.2,20.6,7.9,20.0,14.2,3.5,88,76,59,30.25,30.09,16,6,20,0.00
2013-3-7,35.4,19.0,-1.5,21.9,11.2,-5.8,84,72,53,30.24,30.14,18,5,20,0.00
2013-3-8,39.6,30.5,18.3,30.2,23.9,14.0,87,77,63,30.19,29.96,19,11,21,0.00
2013-3-9,36.3,34.8,33.1,34.0,32.3,27.6,92,90,80,29.96,29.57,23,12,71,0.51
2013-3-10,34.7,33.1,29.5,32.3,30.6,27.5,93,91,83,29.76,29.57,21,11,25,0.00
2013-3-11,30.4,27.5,20.5,28.1,25.3,2.8,93,91,88,29.70,29.58,17,9,20,0.00
2013-3-12,22.1,19.6,16.3,17.5,15.5,13.1,88,84,75,30.00,29.69,14,6,21,0.00
2013-3-13,34.3,21.9,11.5,19.5,13.5,7.6,84,71,55,30.24,30.00,14,4,18,0.00
2013-3-14,41.4,28.9,18.5,30.0,22.5,13.2,89,77,63,30.13,29.87,15,5,17,0.02
2013-3-15,38.8,32.3,25.7,33.2,28.6,21.6,92,86,78,29.88,29.64,13,4,18,0.06
2013-3-16,30.6,23.9,15.6,28.5,17.8,8.5,92,78,62,30.03,29.69,21,8,36,0.00
2013-3-17,30.2,20.7,8.2,20.9,11.3,1.8,77,67,52,30.06,29.73,22,10,26,0.00
2013-3-18,32.7,22.1,10.9,28.5,16.9,6.1,89,80,68,29.73,29.46,25,14,33,0.00
2013-3-19,21.9,13.2,6.1,10.4,4.7,-0.1,81,69,52,29.98,29.64,24,13,30,0.00
2013-3-20,17.8,11.3,3.9,5.9,1.4,-3.1,73,64,51,30.02,29.92,20,11,28,0.00
2013-3-21,30.0,14.8,0.0,11.9,4.3,-5.5,78,63,45,29.95,29.87,9,2,13,0.00
2013-3-22,45.1,21.0,3.7,22.8,9.4,-1.3,80,62,38,29.93,29.87,8,2,11,0.00
2013-3-23,42.6,28.5,14.4,23.8,16.7,8.2,78,62,44,30.02,29.88,12,3,13,0.00
2013-3-24,36.5,29.4,25.5,25.7,21.1,17.6,77,71,62,29.95,29.79,24,7,28,0.00
2013-3-25,35.4,28.8,21.0,22.4,18.8,15.2,80,67,53,30.06,29.83,18,9,22,0.00
2013-3-26,39.4,29.3,20.1,26.2,20.6,14.1,80,70,57,30.15,30.05,10,3,12,0.00
2013-3-27,46.9,29.9,15.6,26.4,18.8,11.5,85,65,44,30.23,30.14,7,1,10,0.00
2013-3-28,48.6,33.4,17.8,28.4,21.6,2.2,82,64,43,30.22,30.14,9,1,10,0.00
2013-3-29,51.4,37.5,25.0,35.0,27.9,20.0,82,69,49,30.17,29.97,15,5,18,0.00
2013-3-30,47.8,41.3,32.7,42.4,35.3,30.1,90,79,70,29.97,29.72,20,6,23,0.08
2013-3-31,39.0,33.3,30.9,31.8,29.9,28.1,92,87,66,29.73,29.66,20,7,28,0.00
2013-4-2,34.9,29.8,24.4,17.6,16.3,15.2,71,57,48,30.20,30.15,10,2,22,0.00
2013-4-3,42.1,32.6,18.3,28.0,21.9,14.0,84,66,44,30.29,30.00,19,6,23,0.00
2013-4-4,45.7,37.8,34.3,36.8,27.3,22.8,76,66,55,30.00,29.91,14,6,25,0.00
2013-4-5,46.8,35.8,27.0,31.6,26.4,20.1,89,70,46,30.11,29.79,23,7,43,0.08
2013-4-6,58.3,44.0,35.2,47.1,35.7,25.1,89,73,60,29.80,29.37,26,12,32,0.06
2013-4-7,49.8,41.8,34.3,39.2,34.8,30.6,88,77,61,29.83,29.61,14,5,16,0.02
2013-4-8,53.2,44.5,39.4,46.2,40.2,36.1,91,85,75,29.87,29.54,15,6,18,0.32
2013-4-9,39.4,37.7,34.3,36.9,35.3,32.0,93,91,88,29.95,29.76,27,13,35,0.84
2013-4-10,34.7,32.6,29.5,32.4,29.8,26.9,92,89,81,29.97,29.71,26,10,35,0.22
2013-4-11,35.4,33.1,30.2,32.8,30.0,27.9,92,88,77,29.72,29.48,19,6,22,0.12
2013-4-12,36.3,31.7,28.0,30.5,27.6,25.8,92,85,73,29.69,29.47,14,8,21,0.00
2013-4-13,37.6,32.0,27.7,28.5,25.9,22.7,89,78,63,29.83,29.69,17,5,20,0.00
2013-4-14,40.3,33.7,30.7,38.1,29.8,24.6,92,86,74,29.82,29.36,20,9,71,0.45
2013-4-15,43.2,37.6,33.1,36.9,30.4,26.9,90,75,65,29.86,29.47,14,5,22,0.00
2013-4-16,46.0,37.6,31.1,32.6,28.7,26.1,83,71,56,30.17,29.85,14,6,19,0.00
2013-4-17,38.5,35.8,32.5,34.4,30.8,15.4,92,82,71,30.16,29.62,21,8,27,0.34
2013-4-18,36.9,34.3,30.7,34.8,32.2,28.7,93,92,90,29.71,29.31,18,8,21,0.10
2013-4-19,36.3,32.4,30.0,28.7,26.2,23.1,92,78,62,29.83,29.31,17,6,38,0.00
2013-4-20,42.4,34.9,24.6,23.1,19.2,15.3,74,54,38,30.16,29.83,11,4,15,0.00
2013-4-21,54.0,42.3,32.7,45.8,35.5,22.1,92,77,56,30.17,29.91,100,12,100,0.41
2013-4-22,47.7,38.6,32.2,45.0,36.5,30.1,93,92,88,30.03,29.87,19,8,24,0.35
2013-4-23,40.3,34.2,30.7,31.7,27.8,23.5,93,78,57,29.98,29.89,16,5,21,0.02
2013-4-24,52.2,39.1,25.2,35.2,29.0,20.1,87,69,44,29.93,29.76,20,4,36,0.04
2013-4-25,56.5,41.2,31.8,35.2,30.0,27.0,87,67,39,30.10,29.86,17,6,21,0.00
2013-4-26,76.1,58.6,43.2,46.5,40.3,28.5,71,52,34,30.03,29.90,23,7,26,0.00
2013-4-27,73.6,60.0,46.0,53.7,47.6,42.1,87,65,47,30.03,29.83,17,6,20,0.00
2013-4-28,70.9,53.6,45.7,51.6,44.3,40.2,83,71,50,29.83,29.74,12,3,20,0.00
2013-4-30,68.2,56.4,52.3,48.2,46.0,40.3,84,70,39,29.84,29.67,16,4,36,0.12
2013-5-1,52.7,41.2,32.5,47.5,37.2,30.4,92,86,75,30.31,29.82,17,10,21,0.37
2013-5-2,34.9,32.6,31.3,32.0,30.3,29.2,93,91,87,30.34,30.23,19,9,22,0.08
2013-5-3,33.6,32.1,30.4,31.1,29.6,28.3,93,90,87,30.23,29.94,18,5,21,0.00
2013-5-4,49.6,40.2,32.4,40.3,35.4,30.3,93,83,70,30.01,29.90,15,8,16,0.00
2013-5-5,66.7,48.7,36.5,53.1,41.7,33.3,89,77,60,30.03,29.94,9,4,12,0.00
2013-5-6,73.2,58.3,42.1,53.3,46.7,39.1,91,68,41,30.00,29.91,7,2,10,0.00
2013-5-7,83.8,64.8,47.1,56.8,48.1,42.7,87,58,34,29.98,29.88,10,1,15,0.00
2013-5-8,81.5,64.0,49.6,56.1,50.7,44.4,89,65,36,29.91,29.83,16,3,21,0.32
2013-5-9,57.6,53.1,44.8,54.8,50.8,42.3,93,92,88,29.89,29.81,18,7,24,0.69
2013-5-10,72.9,51.0,39.7,48.3,39.5,34.2,91,67,31,29.95,29.79,19,6,21,0.00
2013-5-11,52.7,47.0,39.4,42.2,29.9,22.4,74,53,32,30.02,29.74,22,11,31,0.00
2013-5-12,60.6,44.9,32.9,28.4,24.9,22.2,70,47,26,30.08,29.96,16,6,21,0.00
2013-5-13,72.3,54.3,32.2,46.4,35.6,23.2,76,51,31,30.00,29.61,21,7,26,0.00
2013-5-14,96.3,75.6,53.8,59.2,50.1,38.3,74,45,21,29.64,29.37,26,8,32,0.00
2013-5-15,84.0,66.2,56.7,53.5,47.2,40.6,65,51,34,29.85,29.59,13,4,21,0.00
2013-5-16,84.9,70.7,53.2,56.0,48.8,42.3,68,48,30,29.86,29.75,13,3,18,0.00
2013-5-17,70.4,57.6,50.2,58.5,52.1,47.1,93,83,48,29.90,29.78,20,9,23,1.05
2013-5-18,80.2,68.4,55.0,66.4,59.9,51.2,91,75,59,29.90,29.73,20,9,22,0.00
2013-5-19,80.6,68.2,61.9,69.7,62.1,56.7,93,81,66,29.75,29.48,25,10,36,0.81
2013-5-20,82.4,67.2,57.9,63.0,59.3,52.5,94,77,48,29.57,29.44,19,8,36,0.26
2013-5-21,69.3,62.3,57.9,61.1,54.8,51.0,91,77,61,29.58,29.42,14,3,36,0.04
2013-5-22,58.8,55.1,50.4,54.3,52.0,47.5,93,89,79,29.80,29.54,19,6,36,0.08
2013-5-23,69.1,53.8,45.5,48.2,40.6,32.9,91,64,34,30.20,29.80,17,8,22,0.00
2013-5-24,68.2,55.6,39.0,49.0,41.2,30.8,74,59,47,30.28,30.09,18,6,20,0.02
2013-5-25,57.4,54.0,52.3,49.2,45.5,41.3,84,73,63,30.17,30.09,22,12,36,0.00
2013-5-26,55.6,51.0,46.8,49.4,44.1,38.9,88,78,65,30.11,29.92,71,11,71,0.16
2013-5-27,56.3,54.0,52.0,53.5,51.0,48.7,92,89,84,29.92,29.70,18,9,21,0.48
2013-5-28,64.0,57.4,52.0,60.7,54.7,50.0,94,91,85,29.70,29.59,11,4,14,0.00
2013-5-29,79.9,65.5,58.6,69.5,61.3,56.2,94,87,69,29.71,29.57,19,7,36,0.08
2013-5-30,78.1,69.0,62.8,67.2,62.9,59.0,93,81,64,29.62,29.47,22,11,36,0.14
2013-5-31,86.4,68.6,56.5,65.0,59.0,37.6,91,73,37,29.56,29.48,23,9,28,0.16
2013-6-1,70.5,58.7,54.0,58.9,53.8,51.0,93,84,63,29.56,29.46,15,3,36,0.10
2013-6-2,54.1,51.5,49.3,42.0,41.0,40.5,76,68,61,29.92,29.91,1,0,4,0.00
2013-6-3,72.0,60.2,43.9,52.6,46.1,39.8,88,62,43,29.98,29.84,16,3,20,0.00
2013-6-4,61.3,56.2,52.5,54.0,49.9,46.5,90,80,59,29.98,29.89,21,8,71,0.21
2013-6-5,65.3,56.4,52.9,60.2,53.4,49.8,93,90,80,29.94,29.80,15,5,36,0.06
2013-6-6,61.9,56.2,53.2,54.9,52.5,50.6,93,88,77,29.89,29.81,14,4,36,0.00
2013-6-7,73.8,59.4,52.3,56.7,52.0,49.3,93,78,52,29.92,29.82,11,2,36,0.00
2013-6-8,72.1,63.4,54.0,59.7,54.2,49.9,89,73,56,29.85,29.79,16,4,21,0.00
2013-6-9,75.4,62.6,55.6,63.9,56.8,51.7,89,82,66,29.82,29.66,19,10,36,0.27
2013-6-10,91.8,68.1,59.2,67.8,60.5,56.6,93,78,43,29.77,29.68,8,1,36,0.00
2013-6-11,96.4,71.9,57.2,72.6,63.5,54.6,92,76,44,29.81,29.72,15,2,36,0.00
2013-6-12,78.4,70.4,65.3,69.1,64.8,61.0,91,83,71,29.80,29.61,18,6,36,0.10
2013-6-13,87.6,69.3,57.9,62.7,56.0,50.7,88,64,40,29.98,29.77,13,5,16,0.00
2013-6-14,75.6,68.3,58.8,62.4,58.0,51.4,80,70,60,30.00,29.80,19,9,22,0.00
2013-6-15,83.7,70.9,63.1,69.7,63.9,59.1,92,79,60,29.87,29.71,17,4,21,0.08
2013-6-16,92.3,73.6,58.8,62.3,55.9,51.0,92,58,32,29.85,29.79,18,3,23,0.00
2013-6-17,86.2,73.2,59.5,63.5,55.3,51.5,78,56,36,29.89,29.78,16,4,20,0.00
2013-6-18,85.8,67.6,58.3,62.2,56.7,53.0,86,69,44,29.97,29.87,12,4,16,0.08
2013-6-19,87.6,70.9,57.2,63.6,57.9,52.1,85,65,41,30.01,29.89,18,7,19,0.00
2013-6-20,92.5,77.3,65.1,70.3,63.4,57.9,83,64,42,29.97,29.83,20,6,36,0.06
2013-6-21,84.7,73.6,63.1,71.3,65.5,59.6,92,76,63,29.92,29.69,20,6,25,0.57
2013-6-22,87.4,73.6,64.6,76.4,67.5,61.6,93,82,63,29.97,29.72,19,7,36,2.27
2013-6-23,84.9,74.1,65.5,71.4,66.3,62.2,92,78,63,29.83,29.63,23,7,36,0.12
2013-6-24,78.6,70.7,65.8,71.4,65.3,62.0,93,83,73,29.85,29.72,18,3,36,0.12
2013-6-25,87.6,74.1,63.9,75.1,68.6,61.8,94,84,66,29.78,29.62,14,5,17,0.51
2013-6-26,91.2,77.7,70.3,75.9,70.7,64.7,95,80,51,29.74,29.58,13,4,36,0.00
2013-6-27,89.1,76.7,64.8,71.9,61.4,55.5,88,62,35,29.78,29.69,19,5,27,0.00
2013-6-28,77.2,70.3,64.2,63.4,59.7,56.3,90,70,57,29.72,29.62,19,7,26,0.26
2013-6-29,73.2,65.7,61.0,61.0,58.9,53.4,93,80,58,29.85,29.64,21,6,36,0.26
2013-6-30,84.7,67.7,55.2,57.0,52.0,47.4,76,59,36,30.00,29.85,14,5,19,0.00
2013-7-1,82.0,71.5,56.5,62.1,55.9,50.1,81,59,43,30.09,30.00,12,3,17,0.00
2013-7-2,81.5,70.8,59.7,60.4,55.5,52.1,77,60,41,30.05,29.96,14,3,17,0.00
2013-7-3,84.9,71.9,58.8,64.1,57.7,54.0,85,63,40,30.02,29.87,12,2,15,0.00
2013-7-4,90.7,76.1,60.4,66.5,58.7,50.4,77,56,37,29.95,29.84,13,4,18,0.00
2013-7-5,90.1,78.4,64.6,65.2,60.7,55.3,74,56,41,29.92,29.81,18,6,26,0.00
2013-7-6,93.0,81.0,69.1,70.0,64.4,59.4,75,58,43,29.89,29.78,18,6,23,0.00
2013-7-7,93.0,83.4,74.5,72.4,68.6,64.6,83,62,49,29.84,29.75,12,3,36,0.08
2013-7-8,99.0,78.9,68.7,75.0,69.8,65.7,92,75,42,29.92,29.80,93,3,93,0.06
2013-7-9,89.8,78.2,69.4,75.1,69.8,65.8,92,76,55,29.87,29.73,16,5,36,0.26
2013-7-10,73.2,69.2,65.1,66.7,63.8,61.2,88,83,80,29.88,29.81,10,5,13,0.00
2013-7-15,92.1,80.5,74.3,73.0,70.8,69.4,89,74,54,30.11,29.88,16,5,36,0.04
2013-7-16,103.8,84.6,73.0,77.4,71.8,68.3,91,68,38,30.16,30.10,9,2,16,0.00
2013-7-17,98.6,85.0,72.3,76.2,70.9,68.1,88,64,45,30.20,30.05,9,1,13,0.00
2013-7-18,100.9,86.0,74.1,75.2,70.8,67.9,83,62,40,30.05,29.74,11,3,20,0.00
2013-7-19,86.9,79.0,68.5,73.3,66.4,60.8,90,66,47,29.81,29.67,22,5,36,0.53
2013-7-20,92.8,74.0,62.4,68.8,62.6,58.2,87,69,43,29.86,29.79,8,1,13,0.00
2013-7-21,82.6,69.6,63.7,68.6,63.7,59.4,90,82,58,29.85,29.74,16,6,36,0.02
2013-7-22,91.9,76.0,63.1,76.1,66.7,58.8,93,74,53,29.76,29.59,16,5,22,0.00
2013-7-23,79.5,67.9,57.9,58.8,54.9,52.1,83,64,46,29.92,29.71,13,5,18,0.00
2013-7-24,77.7,66.3,54.9,60.9,54.9,48.5,83,68,49,29.99,29.90,6,1,9,0.00
2013-7-25,84.9,69.0,59.7,69.0,60.8,53.2,88,76,57,29.93,29.84,16,2,36,0.14
2013-7-26,72.5,65.5,54.5,63.1,56.6,46.7,92,74,56,29.94,29.80,17,6,22,0.04
2013-7-27,63.3,55.1,49.6,50.0,47.0,44.7,87,75,53,29.94,29.82,20,6,36,0.02
2013-7-28,78.6,65.7,51.6,55.6,51.7,47.9,87,62,44,29.96,29.83,11,4,15,0.02
2013-7-29,79.5,65.6,49.3,60.4,54.0,46.2,90,68,48,30.05,29.95,93,3,93,0.00
2013-7-30,79.9,68.7,60.6,65.7,60.2,54.4,83,75,60,30.02,29.96,8,2,10,0.00
2013-7-31,79.7,70.5,61.5,66.3,61.2,53.3,92,74,52,29.99,29.90,14,3,36,0.00
2013-8-1,82.6,70.7,55.0,62.3,56.7,50.1,85,63,42,29.99,29.77,9,2,14,0.00
2013-8-2,80.6,69.8,59.5,60.7,56.5,50.5,90,65,43,29.95,29.75,12,3,36,0.00
2013-8-3,82.2,66.9,51.1,59.1,52.1,46.6,87,61,40,30.09,29.95,11,2,15,0.00
2013-8-4,79.9,65.7,50.2,59.2,53.2,45.8,87,66,41,30.14,29.94,8,2,10,0.00
2013-8-5,85.3,67.0,59.0,71.5,61.7,54.2,92,83,60,29.94,29.72,16,2,36,0.31
2013-8-6,92.7,73.4,59.7,71.2,63.9,57.4,93,74,49,29.77,29.65,22,2,36,0.00
2013-8-7,81.7,67.0,58.1,62.5,56.8,50.5,92,72,42,29.93,29.69,11,4,17,0.00
2013-8-8,79.0,67.0,51.4,59.1,54.9,48.0,89,67,47,29.97,29.88,9,1,12,0.00
2013-8-9,79.5,69.0,59.4,60.7,55.5,50.8,85,64,44,30.02,29.90,16,4,20,0.00
2013-8-10,76.8,66.6,53.8,58.1,54.4,48.1,85,66,49,30.10,30.00,9,2,12,0.00
2013-8-11,78.1,67.5,60.6,67.5,62.1,55.4,93,83,67,30.03,29.91,10,2,18,0.91
2013-8-12,78.6,69.6,60.4,65.9,59.2,54.7,94,72,48,29.97,29.90,13,3,36,0.00
2013-8-13,77.4,64.8,53.8,55.9,51.1,46.6,88,63,40,30.10,29.97,13,3,16,0.00
2013-8-14,79.0,66.1,50.2,57.6,52.1,46.2,87,63,43,30.12,30.02,9,2,36,0.00
2013-8-15,82.6,66.4,51.1,59.4,52.6,46.9,87,64,41,30.06,30.00,5,1,12,0.00
2013-8-16,84.4,68.1,53.2,63.1,55.3,49.5,89,66,40,30.12,30.04,7,1,36,0.00
2013-8-17,86.2,69.7,53.6,63.2,55.8,49.6,89,64,40,30.14,30.04,12,2,15,0.00
2013-8-18,83.5,70.6,56.8,63.6,57.7,52.4,87,66,46,30.08,29.95,14,3,22,0.00
2013-8-19,86.5,73.0,60.6,69.0,62.5,54.6,84,71,54,29.97,29.86,11,3,18,0.00
2013-8-20,89.8,78.4,67.6,73.0,67.5,60.5,79,70,57,29.91,29.81,15,4,22,0.00
2013-8-21,90.5,77.9,71.8,74.7,69.7,65.5,91,76,59,29.90,29.80,10,3,17,0.02
2013-8-22,84.4,74.3,65.5,70.6,64.7,59.6,94,74,49,30.02,29.90,13,3,16,2.65
2013-8-23,85.3,72.5,58.8,70.5,64.2,55.9,91,76,58,30.06,29.98,13,3,36,0.00
2013-8-24,86.7,76.1,65.7,74.1,67.8,61.0,86,76,64,30.05,29.93,19,7,23,0.02
2013-8-25,91.9,82.7,74.5,76.9,72.3,68.1,81,71,60,30.02,29.91,17,6,26,0.00
2013-8-26,95.2,83.9,73.9,78.4,73.3,68.8,85,71,57,29.97,29.81,12,4,17,0.00
2013-8-27,91.2,83.3,74.8,77.2,73.0,68.6,86,72,58,29.82,29.74,11,3,17,0.00
2013-8-28,89.4,80.0,71.2,75.9,72.7,68.5,93,79,63,29.96,29.81,12,4,36,0.00
2013-8-29,91.9,80.9,72.1,77.6,71.6,68.2,91,75,54,29.97,29.80,11,3,15,0.00
2013-8-30,86.2,76.9,69.6,74.8,69.0,63.2,88,77,66,29.83,29.74,13,3,17,0.00
2013-8-31,85.8,73.7,62.4,71.8,66.2,59.4,91,78,61,29.79,29.65,8,2,10,0.00
2013-9-1,76.8,70.9,62.2,68.0,62.5,55.5,90,76,57,29.85,29.64,15,5,36,0.02
2013-9-2,64.8,58.4,50.9,55.6,52.1,47.5,90,80,66,29.98,29.85,12,3,16,0.00
2013-9-3,77.4,60.9,43.9,59.2,51.6,41.2,92,74,45,30.01,29.92,12,1,36,0.00
2013-9-4,87.1,71.7,54.7,70.5,62.3,50.6,89,74,56,30.05,29.93,8,1,12,0.00
2013-9-5,82.2,71.7,60.4,67.8,63.4,55.6,88,76,61,30.12,30.03,10,5,15,0.00
2013-9-6,88.2,75.9,64.9,71.3,64.4,60.6,88,70,47,30.03,29.81,16,4,20,0.00
2013-9-7,93.0,79.6,67.3,75.0,67.8,60.5,82,68,54,29.89,29.78,12,3,15,0.00
2013-9-8,78.6,71.2,66.7,67.2,63.9,61.0,87,78,65,29.95,29.86,16,9,22,0.00
2013-10-5,56.5,49.6,41.5,46.9,43.6,38.0,87,80,67,29.68,29.64,5,1,7,0.00
2013-10-6,43.2,42.3,41.5,40.1,39.1,38.0,89,88,87,29.64,29.59,2,0,3,0.00
2013-10-10,73.4,65.1,48.9,55.3,51.2,43.7,82,62,47,29.95,29.80,19,8,36,0.00
2013-10-11,73.6,64.3,53.8,60.8,53.7,48.6,88,70,55,29.82,29.60,30,12,37,0.00
2013-10-12,66.0,53.9,40.5,56.6,42.0,33.3,82,65,47,30.07,29.63,17,4,27,0.00
2013-10-13,72.3,48.2,35.2,48.9,35.8,30.6,85,64,40,30.31,30.06,10,1,12,0.00
2013-10-14,56.8,48.5,36.0,45.2,38.3,31.9,86,69,52,30.26,29.81,18,7,43,0.04
2013-10-15,55.2,49.8,46.6,52.2,46.3,43.1,92,88,75,29.84,29.59,22,7,25,0.12
2013-10-16,48.6,44.0,34.5,46.3,40.4,31.4,92,87,79,29.81,29.64,14,4,20,0.00
2013-10-17,57.9,44.9,32.7,47.2,38.0,30.3,92,78,54,29.79,29.65,11,2,36,0.00
2013-10-18,54.9,43.7,35.2,41.9,34.0,28.4,89,70,45,29.85,29.70,16,5,20,0.00
2013-10-19,50.4,38.6,30.4,40.8,32.7,25.8,88,79,67,29.75,29.57,18,2,22,0.24
2013-10-20,52.2,38.0,27.3,42.6,33.0,23.7,89,82,69,29.74,29.50,19,5,22,0.04
2013-10-21,38.5,33.8,25.9,32.5,24.5,19.9,86,69,54,29.83,29.73,17,6,22,0.00
2013-10-22,43.3,31.5,21.4,33.5,25.3,17.8,87,78,68,29.88,29.80,10,2,14,0.00
2013-10-23,44.1,34.1,26.4,33.1,25.6,20.4,88,72,57,29.95,29.85,13,4,20,0.00
2013-10-24,43.5,34.8,28.6,28.4,24.6,20.6,77,67,52,30.16,29.94,14,4,18,0.00
2013-10-25,58.8,41.7,23.7,37.5,30.8,20.4,88,67,45,30.18,29.69,23,4,28,0.00
2013-10-26,51.4,42.8,32.7,37.2,30.9,25.5,75,63,48,29.95,29.68,16,7,23,0.00
2013-10-27,63.7,43.4,26.4,38.7,31.0,22.5,85,64,39,29.93,29.69,13,4,21,0.00
2013-10-28,50.7,38.4,33.3,31.8,28.2,24.8,82,67,47,30.25,29.93,16,7,20,0.00
2013-10-29,49.6,40.6,32.9,37.6,31.8,24.9,75,71,62,30.22,29.92,13,6,16,0.00
2013-10-30,55.9,49.3,42.6,52.1,45.2,36.6,92,86,75,29.93,29.54,14,5,36,0.00
2013-10-31,51.8,44.1,39.0,49.8,41.2,35.5,93,89,85,29.54,29.28,16,6,20,0.00
2013-11-1,50.4,43.1,36.7,38.5,36.4,29.8,89,78,60,29.71,29.29,15,6,20,0.00
2013-11-2,53.2,39.3,30.0,34.5,29.7,24.3,83,69,49,29.97,29.71,13,3,16,0.00
2013-11-3,52.9,42.5,29.8,35.8,31.1,24.4,83,65,50,30.00,29.79,30,14,38,0.00
2013-11-4,46.6,42.2,34.0,43.5,36.5,31.6,91,81,60,30.01,29.76,26,8,31,0.10
2013-11-5,43.5,35.6,26.4,39.7,32.9,24.0,93,90,84,30.09,29.77,20,6,25,0.31
2013-11-6,43.9,33.5,27.0,33.4,27.3,22.2,93,79,53,30.04,29.77,19,8,24,0.00
2013-11-7,29.3,28.0,26.8,24.9,24.1,23.0,86,85,83,30.07,30.03,5,1,25,0.00
2013-11-8,45.7,36.0,24.3,39.9,27.6,21.0,90,73,51,30.06,29.53,31,10,39,0.00
2013-11-9,46.0,40.9,31.6,40.5,33.3,25.3,85,75,60,30.06,29.54,24,10,33,0.00
2013-11-10,54.5,39.5,32.4,33.7,29.6,26.4,79,68,44,30.21,29.93,14,4,20,0.00
2013-11-11,39.2,25.4,15.4,31.1,17.6,8.6,90,72,61,30.51,29.92,18,9,22,0.00
2013-11-12,28.6,17.6,10.2,15.6,10.2,5.3,81,73,58,30.61,30.32,8,2,12,0.00
2013-11-13,46.8,33.8,18.0,32.5,22.9,11.7,76,64,44,30.32,29.80,20,6,26,0.00
2013-11-14,43.3,36.9,31.3,37.6,30.4,24.0,88,77,70,29.80,29.66,10,3,17,0.00
2013-11-15,65.5,42.3,28.0,44.9,34.6,25.2,90,75,47,29.76,29.57,17,4,20,0.00
2013-11-16,55.8,46.6,39.6,52.9,42.7,32.6,93,86,76,29.57,29.13,20,11,25,0.06
2013-11-17,45.8,39.7,32.7,38.9,34.1,26.5,89,81,75,29.69,29.20,24,8,32,0.04
2013-11-18,38.5,30.1,22.1,27.1,22.5,17.8,84,73,57,30.11,29.68,24,9,32,0.00
2013-11-19,43.9,33.6,20.1,29.6,24.3,16.3,87,70,53,30.11,29.85,27,12,36,0.00
2013-11-20,40.5,37.3,33.8,33.3,28.9,24.0,92,73,53,29.90,29.80,24,13,32,0.02
2013-11-21,37.9,31.8,24.1,35.8,29.3,21.0,92,90,84,30.29,29.89,12,2,36,0.00
2013-11-22,33.6,23.2,14.9,20.7,15.7,9.3,88,73,57,30.42,30.29,11,2,17,0.00
2013-11-23,20.5,11.0,4.6,9.6,2.2,-1.9,78,67,51,30.63,30.37,20,6,23,0.00
2013-11-24,32.9,16.4,2.3,13.8,6.5,-3.5,80,66,43,30.52,29.92,21,7,32,0.00
2013-11-25,39.9,31.9,23.9,29.8,22.4,13.7,77,68,58,29.92,29.81,15,7,23,0.00
2013-11-26,32.5,21.7,12.9,23.1,9.6,2.4,72,60,37,30.17,29.90,19,9,25,0.00
2013-11-27,41.4,18.7,7.7,20.0,7.9,2.3,79,63,39,30.20,29.92,15,5,17,0.00
2013-11-28,36.9,22.9,12.7,18.5,12.3,6.3,76,64,46,30.34,29.90,14,4,17,0.00
2013-11-29,34.7,23.1,9.7,21.7,14.6,4.5,82,70,55,30.35,30.02,20,7,30,0.00
2013-11-30,51.4,35.7,28.0,31.7,25.8,20.0,78,68,47,30.03,29.87,16,3,20,0.00
2013-12-1,53.8,32.4,23.0,32.9,24.2,18.9,85,72,45,30.03,29.79,6,2,8,0.00
2013-12-2,41.2,32.6,25.5,32.3,28.4,20.8,90,84,69,29.79,29.47,18,9,36,0.08
2013-12-3,35.2,33.9,32.4,33.1,31.9,30.3,93,92,89,29.61,29.45,100,8,100,0.12
2013-12-4,34.9,30.4,16.7,33.2,28.1,11.0,94,91,79,29.61,29.30,100,22,100,0.10
2013-12-5,19.0,9.3,2.8,11.1,2.7,-2.7,82,74,56,30.17,29.60,18,11,28,0.00
2013-12-6,15.6,2.6,-3.5,1.9,-4.3,-9.6,78,72,53,30.44,30.15,15,7,20,0.00
2013-12-7,14.9,1.8,-6.2,-0.4,-6.3,-11.8,76,69,48,30.53,30.37,10,3,15,0.00
2013-12-8,15.6,10.7,5.4,10.0,5.4,-1.4,82,79,73,30.38,29.84,14,5,17,0.00
2013-12-9,11.8,2.6,-4.2,7.7,-3.8,-10.7,83,74,57,29.96,29.74,18,5,25,0.00
2013-12-10,15.8,9.5,2.8,10.2,2.9,-3.6,84,74,56,30.04,29.62,22,6,28,0.00
2013-12-11,14.7,0.4,-6.2,10.2,-7.8,-13.1,82,68,47,30.36,30.04,17,5,21,0.00
2013-12-12,27.7,14.4,1.6,15.0,7.4,-5.1,81,74,57,30.19,29.96,11,2,15,0.00
2013-12-13,23.5,17.1,14.2,14.6,10.9,7.9,84,76,67,30.05,29.91,16,8,20,0.00
2013-12-14,17.8,12.5,2.3,11.2,7.0,-3.7,83,78,73,30.05,29.88,17,7,21,0.00
2013-12-15,13.3,3.5,-0.6,0.4,-4.6,-6.6,77,69,55,29.97,29.88,12,5,17,0.00
2013-12-16,17.8,11.0,2.8,14.3,4.9,-5.8,86,76,66,29.93,29.77,14,4,16,0.00
2013-12-17,36.0,23.8,10.9,24.9,17.1,5.6,86,76,59,29.95,29.73,25,9,31,0.00
2013-12-18,38.3,24.5,9.3,29.9,18.4,5.0,87,78,57,29.94,29.53,19,5,22,0.00
2013-12-19,27.0,21.2,19.4,23.4,16.2,13.2,87,81,76,29.85,29.64,21,9,36,0.00
2013-12-20,20.5,19.0,17.2,15.2,14.0,12.7,84,81,77,29.80,29.68,18,6,36,0.00
2013-12-21,25.0,21.2,18.1,18.9,16.4,14.3,85,81,77,29.79,29.67,16,6,71,0.00
2013-12-22,22.8,15.8,0.7,17.6,10.9,-4.3,84,81,78,30.02,29.71,19,8,36,0.00
2013-12-23,5.4,-2.8,-7.4,-2.2,-9.4,-13.3,79,73,56,30.28,30.02,15,7,20,0.00
2013-12-24,13.6,1.1,-10.7,2.9,-6.0,-16.1,81,72,51,30.27,29.97,71,7,71,0.00
2013-12-25,29.1,16.3,7.9,24.0,11.5,2.7,85,81,73,29.98,29.86,16,4,71,0.00
2013-12-26,33.4,23.7,13.3,24.4,18.0,8.8,85,79,66,29.99,29.90,13,1,36,0.00
2013-12-27,48.0,29.0,15.1,33.3,23.4,11.6,88,80,56,29.99,29.77,93,8,93,0.00
2013-12-28,59.4,34.1,23.4,37.5,27.5,20.6,90,78,42,29.86,29.55,19,5,36,0.00
2013-12-29,28.2,4.1,-11.0,25.2,-2.7,-18.1,89,73,58,30.11,29.72,23,10,36,0.00
2013-12-30,4.8,-4.2,-13.2,-2.4,-10.4,-19.1,80,74,67,30.11,29.97,27,6,43,0.00
2013-12-31,3.0,-2.6,-8.9,-3.0,-8.2,-15.1,81,76,71,30.18,29.99,23,4,36,0.00
2014-1-1,3.4,-1.0,-8.3,-4.7,-8.5,-13.9,76,70,64,30.24,30.14,11,7,15,0.00
2014-1-2,16.5,-1.4,-12.6,-0.2,-9.4,-18.8,76,68,46,30.28,30.16,19,5,36,0.00